Time;durP1;ratioP1;P1;durP2;ratioP2;P2;SDS_P1;SDS_P2;PMS_P1;PMS_P2;Temp;Humidity;BMP_temperature;BMP_pressure;BME280_temperature;BME280_humidity;BME280_pressure;Samples;Min_cycle;Max_cycle;Signal;HPM_P1;HPM_P2
2022/04/28 00:00:24;;;;;;;;;41.33;34.33;;;;;;;;4998649;27;47346;-82
2022/04/28 00:02:51;;;;;;;;;38.33;31.67;;;;;;;;4998473;28;45721;-82
2022/04/28 00:05:16;;;;;;;;;37.00;33.00;;;;;;;;4976370;28;45517;-82
2022/04/28 00:07:50;;;;;;;;;41.67;34.33;;;;;;;;4992563;27;45933;-83
2022/04/28 00:10:16;;;;;;;;;38.33;32.67;;;;;;;;4976113;28;46606;-81
2022/04/28 00:12:49;;;;;;;;;40.33;34.33;;;;;;;;4991907;27;45358;-83
2022/04/28 00:15:18;;;;;;;;;40.00;33.33;;;;;;;;4962094;28;45463;-83
2022/04/28 00:18:12;;;;;;;;;37.67;31.67;;;;;;;;4957194;28;46113;-83
2022/04/28 00:20:49;;;;;;;;;36.33;29.67;;;;;;;;4954444;28;45474;-82
2022/04/28 00:23:14;;;;;;;;;35.00;32.33;;;;;;;;4954743;28;45747;-82
2022/04/28 00:25:45;;;;;;;;;37.33;32.00;;;;;;;;4954276;28;45368;-83
2022/04/28 00:28:21;;;;;;;;;;;;;;;;;;;;;
2022/04/28 00:31:09;;;;;;;;;31.00;30.00;;;;;;;;4950623;28;75056;-82
2022/04/28 00:34:04;;;;;;;;;;;;;;;;;;;;;
2022/04/28 00:37:18;;;;;;;;;;;;;;;;;;;;;
2022/04/28 00:43:19;;;;;;;;;38.33;31.67;;;;;;;;5034451;28;45519;-84
2022/04/28 00:45:52;;;;;;;;;37.33;31.33;;;;;;;;4943730;28;45736;-84
2022/04/28 00:51:24;;;;;;;;;34.67;30.00;;;;;;;;4953665;28;45695;-85
2022/04/28 00:53:54;;;;;;;;;37.00;31.67;;;;;;;;4951793;28;45647;-85
2022/04/28 00:56:20;;;;;;;;;34.67;29.00;;;;;;;;4953324;28;45408;-82
2022/04/28 00:58:53;;;;;;;;;33.33;31.33;;;;;;;;4952947;28;45615;-82
2022/04/28 01:01:19;;;;;;;;;38.00;31.67;;;;;;;;4952941;28;45798;-83
2022/04/28 01:03:52;;;;;;;;;37.33;30.67;;;;;;;;4947995;28;47390;-83
2022/04/28 01:07:04;;;;;;;;;38.67;33.00;;;;;;;;4941459;28;45378;-83
2022/04/28 01:25:44;;;;;;;;;34.33;32.00;;;;;;;;5031317;28;46080;-83
2022/04/28 01:28:10;;;;;;;;;37.00;32.00;;;;;;;;5032686;28;46462;-84
2022/04/28 01:30:37;;;;;;;;;37.33;30.00;;;;;;;;5048877;28;45880;-83
2022/04/28 01:33:04;;;;;;;;;28.67;26.00;;;;;;;;5057461;28;45436;-82
2022/04/28 01:35:32;;;;;;;;;31.67;29.00;;;;;;;;5061114;28;45380;-82
2022/04/28 01:38:01;;;;;;;;;32.67;29.00;;;;;;;;5072129;28;47565;-83
2022/04/28 01:40:33;;;;;;;;;33.00;29.00;;;;;;;;5053663;28;45404;-82
2022/04/28 01:43:09;;;;;;;;;32.67;30.00;;;;;;;;5054302;28;45789;-83
2022/04/28 01:45:41;;;;;;;;;34.67;31.00;;;;;;;;5046673;28;45419;-82
2022/04/28 01:48:12;;;;;;;;;35.00;30.00;;;;;;;;5033286;28;47238;-82
2022/04/28 01:50:38;;;;;;;;;30.00;28.33;;;;;;;;5033422;28;45679;-82
2022/04/28 01:58:45;;;;;;;;;30.33;28.67;;;;;;;;5052363;28;45636;-82
2022/04/28 02:01:11;;;;;;;;;28.67;27.33;;;;;;;;5061931;28;45859;-83
2022/04/28 02:03:54;;;;;;;;;37.00;30.00;;;;;;;;5057619;28;45392;-84
2022/04/28 02:06:28;;;;;;;;;31.33;29.00;;;;;;;;5053092;28;45690;-82
2022/04/28 02:09:06;;;;;;;;;35.33;28.33;;;;;;;;5058173;28;46327;-83
2022/04/28 02:11:52;;;;;;;;;29.00;26.67;;;;;;;;5078611;27;45457;-81
2022/04/28 02:14:19;;;;;;;;;30.00;28.00;;;;;;;;5067982;27;45631;-84
2022/04/28 02:16:51;;;;;;;;;28.33;26.67;;;;;;;;5053944;28;45399;-84
2022/04/28 02:19:19;;;;;;;;;34.33;29.33;;;;;;;;5037409;28;47306;-84
2022/04/28 02:21:55;;;;;;;;;27.33;25.33;;;;;;;;5032909;28;45506;-82
2022/04/28 02:24:25;;;;;;;;;31.00;28.00;;;;;;;;5054643;28;45687;-82
2022/04/28 02:26:56;;;;;;;;;35.67;28.67;;;;;;;;5037661;28;45642;-81
2022/04/28 02:29:27;;;;;;;;;31.00;29.33;;;;;;;;4992184;28;45592;-82
2022/04/28 02:31:53;;;;;;;;;27.33;26.00;;;;;;;;5003626;28;45397;-82
2022/04/28 02:34:19;;;;;;;;;31.33;27.67;;;;;;;;5004178;27;45401;-82
2022/04/28 02:36:44;;;;;;;;;33.33;26.33;;;;;;;;5069043;28;45395;-84
2022/04/28 02:39:14;;;;;;;;;32.33;27.33;;;;;;;;4986179;28;45461;-82
2022/04/28 02:41:41;;;;;;;;;31.67;30.00;;;;;;;;5069693;28;45351;-81
2022/04/28 02:44:06;;;;;;;;;32.33;26.67;;;;;;;;5066982;28;45434;-78
2022/04/28 02:46:32;;;;;;;;;30.67;29.67;;;;;;;;4982587;28;45468;-77
2022/04/28 02:48:58;;;;;;;;;36.00;31.33;;;;;;;;4982857;28;46203;-80
2022/04/28 02:51:23;;;;;;;;;31.00;25.67;;;;;;;;5001374;28;45717;-77
2022/04/28 02:53:49;;;;;;;;;32.00;28.00;;;;;;;;5003192;28;44853;-80
2022/04/28 02:56:15;;;;;;;;;38.33;31.00;;;;;;;;5028609;28;46043;-81
2022/04/28 02:58:55;;;;;;;;;30.33;29.67;;;;;;;;5029454;27;46808;-83
2022/04/28 03:01:20;;;;;;;;;29.00;26.33;;;;;;;;4998914;28;45353;-81
2022/04/28 03:03:46;;;;;;;;;36.67;28.00;;;;;;;;4976882;28;45481;-85
2022/04/28 03:11:51;;;;;;;;;31.33;29.00;;;;;;;;4993461;28;45674;-83
2022/04/28 03:14:16;;;;;;;;;33.67;30.67;;;;;;;;5052949;27;45914;-80
2022/04/28 03:17:08;;;;;;;;;33.33;27.67;;;;;;;;5098322;27;45445;-85
2022/04/28 03:19:36;;;;;;;;;32.33;29.33;;;;;;;;4957724;28;45805;-84
2022/04/28 03:22:05;;;;;;;;;32.67;31.00;;;;;;;;4975832;28;45445;-86
2022/04/28 03:24:31;;;;;;;;;30.67;28.33;;;;;;;;4969611;28;45393;-83
2022/04/28 03:26:56;;;;;;;;;35.33;32.00;;;;;;;;4988048;28;45879;-80
2022/04/28 03:29:22;;;;;;;;;37.67;31.00;;;;;;;;4999554;28;45717;-83
2022/04/28 03:31:51;;;;;;;;;37.67;30.00;;;;;;;;4998981;28;45655;-84
2022/04/28 03:34:18;;;;;;;;;33.67;29.00;;;;;;;;5026250;27;45864;-85
2022/04/28 03:36:52;;;;;;;;;34.00;29.00;;;;;;;;5080536;27;45949;-83
2022/04/28 03:39:18;;;;;;;;;33.00;27.00;;;;;;;;5080646;27;45553;-84
2022/04/28 03:41:49;;;;;;;;;33.00;29.00;;;;;;;;5022341;27;45457;-85
2022/04/28 03:44:16;;;;;;;;;28.67;26.00;;;;;;;;4982995;28;45717;-80
2022/04/28 03:47:12;;;;;;;;;28.33;23.00;;;;;;;;4994866;28;45739;-84
2022/04/28 03:49:37;;;;;;;;;38.00;30.67;;;;;;;;5003811;28;47008;-84
2022/04/28 03:52:06;;;;;;;;;30.33;28.33;;;;;;;;4993706;28;44894;-84
2022/04/28 03:54:32;;;;;;;;;37.33;33.67;;;;;;;;5011545;28;45523;-84
2022/04/28 03:56:57;;;;;;;;;33.00;29.33;;;;;;;;5014231;28;46212;-81
2022/04/28 03:59:23;;;;;;;;;39.00;32.67;;;;;;;;5014729;28;45917;-82
2022/04/28 04:01:50;;;;;;;;;34.00;29.67;;;;;;;;5070850;28;45355;-81
2022/04/28 04:04:42;;;;;;;;;37.67;31.00;;;;;;;;5026469;27;45393;-83
2022/04/28 04:07:11;;;;;;;;;37.25;33.50;;;;;;;;4975825;28;45406;-84
2022/04/28 04:09:36;;;;;;;;;36.00;33.00;;;;;;;;4979736;27;45721;-83
2022/04/28 04:12:02;;;;;;;;;32.67;28.00;;;;;;;;4978782;27;45493;-84
2022/04/28 04:14:29;;;;;;;;;34.00;32.50;;;;;;;;4997139;27;45521;-84
2022/04/28 04:16:56;;;;;;;;;35.00;30.67;;;;;;;;5064086;27;45967;-81
2022/04/28 04:19:25;;;;;;;;;34.33;31.33;;;;;;;;5027721;27;47226;-84
2022/04/28 04:21:51;;;;;;;;;35.67;29.00;;;;;;;;4995311;28;45849;-83
2022/04/28 04:24:17;;;;;;;;;37.50;32.75;;;;;;;;4994054;28;45767;-84
2022/04/28 04:26:44;;;;;;;;;30.67;28.67;;;;;;;;4996437;28;45508;-82
2022/04/28 04:29:15;;;;;;;;;37.00;33.00;;;;;;;;4994174;27;45850;-84
2022/04/28 04:37:48;;;;;;;;;35.00;32.00;;;;;;;;4928226;28;45802;-84
2022/04/28 04:40:20;;;;;;;;;29.67;28.00;;;;;;;;5050079;27;46297;-84
2022/04/28 04:43:05;;;;;;;;;41.67;33.33;;;;;;;;5004128;28;44791;-83
2022/04/28 04:45:31;;;;;;;;;33.00;31.00;;;;;;;;4986254;27;45296;-84
2022/04/28 04:47:57;;;;;;;;;39.67;31.67;;;;;;;;4986004;28;45366;-84
2022/04/28 04:50:24;;;;;;;;;41.00;33.00;;;;;;;;4984075;27;47101;-81
2022/04/28 04:52:56;;;;;;;;;31.33;28.33;;;;;;;;5000634;27;45062;-83
2022/04/28 04:55:24;;;;;;;;;36.00;30.33;;;;;;;;5005294;28;45803;-83
2022/04/28 04:57:50;;;;;;;;;45.75;33.50;;;;;;;;4986618;28;45392;-82
2022/04/28 05:00:16;;;;;;;;;43.25;34.25;;;;;;;;4969860;27;47080;-83
2022/04/28 05:03:04;;;;;;;;;43.67;33.00;;;;;;;;4985550;28;45492;-84
2022/04/28 05:05:55;;;;;;;;;40.67;33.33;;;;;;;;4984049;27;45546;-83
2022/04/28 05:11:11;;;;;;;;;37.50;31.50;;;;;;;;4986297;28;45552;-83
2022/04/28 05:13:47;;;;;;;;;41.00;33.67;;;;;;;;4986825;27;45884;-84
2022/04/28 05:16:36;;;;;;;;;38.00;30.67;;;;;;;;4977746;28;45296;-84
2022/04/28 05:19:11;;;;;;;;;38.00;32.00;;;;;;;;4979788;27;46950;-84
2022/04/28 05:21:55;;;;;;;;;41.33;34.00;;;;;;;;4976608;28;47264;-83
2022/04/28 05:24:42;;;;;;;;;33.33;30.67;;;;;;;;4950854;28;46905;-83
2022/04/28 05:27:07;;;;;;;;;34.67;33.00;;;;;;;;4938540;28;45680;-82
2022/04/28 05:29:32;;;;;;;;;42.33;34.00;;;;;;;;4935511;28;46535;-82
2022/04/28 05:31:58;;;;;;;;;38.67;34.33;;;;;;;;4940078;28;45613;-83
2022/04/28 05:34:23;;;;;;;;;38.67;33.67;;;;;;;;4936930;28;45993;-81
2022/04/28 05:36:50;;;;;;;;;36.67;30.67;;;;;;;;4954049;28;46487;-82
2022/04/28 05:39:15;;;;;;;;;32.00;27.00;;;;;;;;4922672;28;46078;-83
2022/04/28 05:41:41;;;;;;;;;41.33;31.67;;;;;;;;4970552;28;47394;-82
2022/04/28 05:46:52;;;;;;;;;32.33;28.00;;;;;;;;4955359;28;45750;-82
2022/04/28 05:49:18;;;;;;;;;29.67;27.33;;;;;;;;4976894;28;45910;-81
2022/04/28 05:51:43;;;;;;;;;32.33;26.67;;;;;;;;5019497;27;46638;-80
2022/04/28 05:54:09;;;;;;;;;31.00;28.00;;;;;;;;4986609;28;45770;-81
2022/04/28 05:56:35;;;;;;;;;30.67;25.67;;;;;;;;4985630;28;45438;-79
2022/04/28 05:59:02;;;;;;;;;32.00;27.67;;;;;;;;4983478;27;45726;-82
2022/04/28 06:01:28;;;;;;;;;32.67;30.67;;;;;;;;4985796;27;47170;-83
2022/04/28 06:03:58;;;;;;;;;33.00;29.33;;;;;;;;4987773;27;45798;-82
2022/04/28 06:06:27;;;;;;;;;27.33;23.00;;;;;;;;4985456;28;45428;-82
2022/04/28 06:08:53;;;;;;;;;34.33;30.00;;;;;;;;4997212;28;45781;-84
2022/04/28 06:11:20;;;;;;;;;39.00;32.67;;;;;;;;4992145;28;46938;-82
2022/04/28 06:13:51;;;;;;;;;29.00;27.67;;;;;;;;5010691;27;45851;-79
2022/04/28 06:16:19;;;;;;;;;31.33;26.67;;;;;;;;4989310;27;46258;-82
2022/04/28 06:18:44;;;;;;;;;34.67;30.00;;;;;;;;5068163;27;45977;-82
2022/04/28 06:21:10;;;;;;;;;34.00;29.00;;;;;;;;4987263;27;45723;-83
2022/04/28 06:23:36;;;;;;;;;31.67;27.67;;;;;;;;4976570;28;45421;-81
2022/04/28 06:26:02;;;;;;;;;30.33;28.67;;;;;;;;4970864;28;45450;-82
2022/04/28 06:28:31;;;;;;;;;50.00;39.33;;;;;;;;4995743;27;45608;-83
2022/04/28 06:31:01;;;;;;;;;30.00;29.00;;;;;;;;4990255;28;45974;-82
2022/04/28 06:33:27;;;;;;;;;30.33;27.67;;;;;;;;5006667;27;45406;-82
2022/04/28 06:35:54;;;;;;;;;31.00;25.00;;;;;;;;5019779;27;45622;-80
2022/04/28 06:38:19;;;;;;;;;32.33;28.67;;;;;;;;5000319;28;45334;-81
2022/04/28 06:40:45;;;;;;;;;32.33;27.00;;;;;;;;4999619;27;46782;-80
2022/04/28 06:43:10;;;;;;;;;30.00;30.00;;;;;;;;4988923;27;45586;-81
2022/04/28 06:45:37;;;;;;;;;34.33;30.67;;;;;;;;4989369;28;45362;-82
2022/04/28 06:48:03;;;;;;;;;35.33;32.00;;;;;;;;4989340;27;46201;-81
2022/04/28 06:50:28;;;;;;;;;26.67;24.00;;;;;;;;4992380;28;47436;-81
2022/04/28 06:52:54;;;;;;;;;31.00;29.00;;;;;;;;4987234;28;45595;-82
2022/04/28 06:55:24;;;;;;;;;30.00;26.67;;;;;;;;4975439;28;45853;-80
2022/04/28 06:57:50;;;;;;;;;36.00;29.33;;;;;;;;4998264;27;45563;-81
2022/04/28 07:00:16;;;;;;;;;36.00;28.33;;;;;;;;5018103;27;46819;-87
2022/04/28 07:02:41;;;;;;;;;34.67;31.33;;;;;;;;4995196;28;45509;-82
2022/04/28 07:05:14;;;;;;;;;36.00;31.67;;;;;;;;4997114;27;45750;-82
2022/04/28 07:07:43;;;;;;;;;26.00;24.67;;;;;;;;5024022;28;45803;-84
2022/04/28 07:10:10;;;;;;;;;31.00;27.00;;;;;;;;4995759;27;46107;-81
2022/04/28 07:12:36;;;;;;;;;34.33;31.00;;;;;;;;4995105;27;45466;-78
2022/04/28 07:15:06;;;;;;;;;37.00;33.00;;;;;;;;5037707;27;45854;-86
2022/04/28 07:17:34;;;;;;;;;34.67;31.33;;;;;;;;4996572;27;45472;-79
2022/04/28 07:20:02;;;;;;;;;31.00;28.33;;;;;;;;5019363;27;45795;-81
2022/04/28 07:22:28;;;;;;;;;35.67;29.33;;;;;;;;5012561;28;45767;-80
2022/04/28 07:24:54;;;;;;;;;36.00;31.67;;;;;;;;5007817;28;45446;-80
2022/04/28 07:27:20;;;;;;;;;39.00;30.33;;;;;;;;4990095;28;45465;-81
2022/04/28 07:29:46;;;;;;;;;35.67;29.00;;;;;;;;4999649;28;48130;-81
2022/04/28 07:32:12;;;;;;;;;37.67;32.33;;;;;;;;4995279;27;45892;-81
2022/04/28 07:34:37;;;;;;;;;30.33;24.67;;;;;;;;4992431;28;44886;-81
2022/04/28 07:37:14;;;;;;;;;;;;;;;;;;;;;
2022/04/28 07:39:44;;;;;;;;;31.67;30.33;;;;;;;;4994527;27;73726;-89
2022/04/28 07:42:16;;;;;;;;;30.33;28.00;;;;;;;;4996119;28;45631;-83
2022/04/28 07:44:58;;;;;;;;;29.00;25.00;;;;;;;;4994281;27;45901;-87
2022/04/28 07:47:33;;;;;;;;;36.33;31.67;;;;;;;;5025468;28;46976;-88
2022/04/28 07:50:07;;;;;;;;;35.33;30.67;;;;;;;;4996017;28;46743;-85
2022/04/28 07:52:42;;;;;;;;;35.33;30.33;;;;;;;;4997951;28;44881;-85
2022/04/28 07:55:31;;;;;;;;;33.00;30.00;;;;;;;;5042954;28;45383;-84
2022/04/28 07:58:03;;;;;;;;;29.00;26.00;;;;;;;;4976523;28;45530;-84
2022/04/28 08:00:45;;;;;;;;;;;;;;;;;;;;;
2022/04/28 08:03:14;;;;;;;;;27.67;24.33;;;;;;;;4978129;28;73890;-82
2022/04/28 08:06:01;;;;;;;;;28.67;27.33;;;;;;;;5047772;28;45462;-84
2022/04/28 08:08:59;;;;;;;;;24.33;24.00;;;;;;;;4993052;28;45894;-84
2022/04/28 08:11:28;;;;;;;;;26.67;23.00;;;;;;;;5018991;28;45440;-82
2022/04/28 08:14:09;;;;;;;;;26.33;24.33;;;;;;;;4984442;28;45947;-84
2022/04/28 08:17:05;;;;;;;;;28.67;26.33;;;;;;;;4983323;27;45536;-83
2022/04/28 08:19:36;;;;;;;;;31.33;25.33;;;;;;;;4994548;27;45700;-83
2022/04/28 08:22:02;;;;;;;;;38.67;31.00;;;;;;;;5060075;28;45643;-83
2022/04/28 08:24:36;;;;;;;;;32.33;26.67;;;;;;;;5031380;28;45678;-85
2022/04/28 08:30:34;;;;;;;;;28.67;27.33;;;;;;;;4947808;28;45746;-82
2022/04/28 08:33:12;;;;;;;;;32.00;25.67;;;;;;;;4938642;28;46375;-83
2022/04/28 08:36:05;;;;;;;;;34.33;27.00;;;;;;;;4980002;27;45385;-84
2022/04/28 08:38:59;;;;;;;;;;;;;;;;;;;;;
2022/04/28 08:41:42;;;;;;;;;28.00;27.67;;;;;;;;5006200;28;74016;-83
2022/04/28 08:44:37;;;;;;;;;38.67;30.00;;;;;;;;5013287;28;45583;-86
2022/04/28 08:47:14;;;;;;;;;31.67;28.33;;;;;;;;5014928;28;45351;-85
2022/04/28 08:49:42;;;;;;;;;23.00;22.00;;;;;;;;4968840;28;45340;-86
2022/04/28 08:52:11;;;;;;;;;34.00;28.67;;;;;;;;4974583;28;45683;-83
2022/04/28 08:54:49;;;;;;;;;26.33;26.33;;;;;;;;5005201;28;45572;-85
2022/04/28 08:57:24;;;;;;;;;30.00;25.33;;;;;;;;5006476;28;45769;-84
2022/04/28 09:00:15;;;;;;;;;30.00;26.33;;;;;;;;4991558;28;45849;-84
2022/04/28 09:02:56;;;;;;;;;28.33;28.33;;;;;;;;4987506;28;45675;-83
2022/04/28 09:05:21;;;;;;;;;26.33;25.67;;;;;;;;4984372;28;47116;-85
2022/04/28 09:07:53;;;;;;;;;28.33;26.67;;;;;;;;5006482;27;45528;-84
2022/04/28 09:10:37;;;;;;;;;21.00;19.00;;;;;;;;5018255;28;45385;-86
2022/04/28 09:16:04;;;;;;;;;;;;;;;;;;;;;
2022/04/28 09:18:33;;;;;;;;;22.67;21.00;;;;;;;;5014225;28;72401;-84
2022/04/28 09:21:01;;;;;;;;;28.67;23.67;;;;;;;;5080085;27;45492;-84
2022/04/28 09:23:29;;;;;;;;;25.67;21.67;;;;;;;;4992424;28;45664;-85
2022/04/28 09:25:56;;;;;;;;;28.00;24.67;;;;;;;;4991580;28;45367;-83
2022/04/28 09:28:22;;;;;;;;;24.67;23.67;;;;;;;;4971216;28;45527;-81
2022/04/28 09:30:55;;;;;;;;;26.33;24.33;;;;;;;;4970905;28;44808;-84
2022/04/28 09:33:36;;;;;;;;;27.00;23.33;;;;;;;;4984908;28;46199;-84
2022/04/28 09:36:04;;;;;;;;;25.33;23.00;;;;;;;;5068806;28;46740;-84
2022/04/28 09:47:56;;;;;;;;;27.00;24.33;;;;;;;;4966287;28;45734;-85
2022/04/28 09:50:25;;;;;;;;;19.00;18.33;;;;;;;;4989794;28;45530;-86
2022/04/28 09:52:55;;;;;;;;;23.33;22.33;;;;;;;;5009851;28;45485;-86
2022/04/28 09:55:27;;;;;;;;;20.33;18.00;;;;;;;;5069458;28;45284;-85
2022/04/28 09:57:59;;;;;;;;;22.00;21.67;;;;;;;;5070290;28;45379;-86
2022/04/28 10:00:38;;;;;;;;;20.33;20.33;;;;;;;;5067247;28;45436;-84
2022/04/28 10:03:09;;;;;;;;;18.67;17.67;;;;;;;;4996069;28;45484;-85
2022/04/28 10:06:05;;;;;;;;;23.33;18.67;;;;;;;;4965843;28;45810;-85
2022/04/28 10:08:42;;;;;;;;;16.33;16.00;;;;;;;;4985539;28;45708;-83
2022/04/28 10:11:10;;;;;;;;;22.00;20.33;;;;;;;;4961400;28;45524;-84
2022/04/28 10:13:44;;;;;;;;;20.00;19.00;;;;;;;;4964456;28;44789;-90
2022/04/28 10:16:23;;;;;;;;;21.33;20.33;;;;;;;;4946555;28;45506;-80
2022/04/28 10:18:54;;;;;;;;;23.33;20.00;;;;;;;;4957693;28;45465;-80
2022/04/28 10:37:32;;;;;;;;;;;;;;;;;;;;;
2022/04/28 10:53:38;;;;;;;;;12.00;11.67;;;;;;;;4956454;28;45429;-83
2022/04/28 10:59:34;;;;;;;;;10.33;9.33;;;;;;;;4943156;28;45544;-84
2022/04/28 11:02:42;;;;;;;;;;;;;;;;;;;;;
2022/04/28 11:05:55;;;;;;;;;7.00;7.00;;;;;;;;4949892;28;45413;-84
2022/04/28 11:08:27;;;;;;;;;11.00;8.00;;;;;;;;4961351;28;45760;-85
2022/04/28 11:11:09;;;;;;;;;11.67;9.33;;;;;;;;4984277;28;45365;-83
2022/04/28 11:13:36;;;;;;;;;9.67;9.00;;;;;;;;5041346;27;45304;-81
2022/04/28 11:16:02;;;;;;;;;11.00;10.00;;;;;;;;5076498;27;46132;-82
2022/04/28 11:18:27;;;;;;;;;15.00;11.00;;;;;;;;4999387;27;47324;-80
2022/04/28 11:21:00;;;;;;;;;15.00;9.00;;;;;;;;5006922;28;45346;-83
2022/04/28 11:26:55;;;;;;;;;9.67;8.00;;;;;;;;5014508;28;44681;-80
2022/04/28 11:38:58;;;;;;;;;11.67;10.33;;;;;;;;4985825;28;45575;-81
2022/04/28 11:54:22;;;;;;;;;8.00;8.00;;;;;;;;4978311;28;45015;-82
2022/04/28 11:59:54;;;;;;;;;9.67;9.67;;;;;;;;4969768;28;45904;-80
2022/04/28 12:14:47;;;;;;;;;;;;;;;;;;;;;
2022/04/28 12:32:39;;;;;;;;;;;;;;;;;;;;;
2022/04/28 12:38:35;;;;;;;;;7.67;7.67;;;;;;;;4881417;29;45537;-83
2022/04/28 12:47:29;;;;;;;;;6.00;6.00;;;;;;;;5005821;28;44965;-85
2022/04/28 12:50:04;;;;;;;;;8.33;8.33;;;;;;;;4986755;28;46102;-83
2022/04/28 12:52:47;;;;;;;;;9.67;8.67;;;;;;;;4954897;28;46448;-83
2022/04/28 12:55:24;;;;;;;;;7.33;7.33;;;;;;;;4949612;28;45753;-83
2022/04/28 12:58:02;;;;;;;;;8.33;7.00;;;;;;;;4946566;28;45766;-85
2022/04/28 13:01:02;;;;;;;;;8.33;8.33;;;;;;;;4955501;28;45572;-85
2022/04/28 13:03:46;;;;;;;;;7.00;7.00;;;;;;;;4975801;28;47181;-86
2022/04/28 13:06:50;;;;;;;;;10.67;9.67;;;;;;;;4963602;28;45755;-85
2022/04/28 13:13:04;;;;;;;;;9.33;9.33;;;;;;;;4929207;28;45890;-85
2022/04/28 13:15:57;;;;;;;;;9.33;9.33;;;;;;;;4950910;28;45932;-85
2022/04/28 13:21:26;;;;;;;;;7.33;7.33;;;;;;;;4966995;28;45479;-84
2022/04/28 13:27:16;;;;;;;;;10.67;9.00;;;;;;;;4973011;28;44861;-85
2022/04/28 13:30:00;;;;;;;;;10.00;10.00;;;;;;;;5030140;28;45789;-85
2022/04/28 13:32:26;;;;;;;;;9.67;9.33;;;;;;;;5056513;28;45557;-85
2022/04/28 13:34:58;;;;;;;;;10.33;7.67;;;;;;;;5038921;28;45368;-86
2022/04/28 13:38:10;;;;;;;;;;;;;;;;;;;;;
2022/04/28 13:40:58;;;;;;;;;7.00;7.00;;;;;;;;5023725;28;73394;-86
2022/04/28 13:43:46;;;;;;;;;5.67;5.67;;;;;;;;5056952;28;45747;-84
2022/04/28 13:46:40;;;;;;;;;8.00;8.00;;;;;;;;5093991;27;45413;-87
2022/04/28 13:52:35;;;;;;;;;8.67;8.33;;;;;;;;5058094;28;45506;-86
2022/04/28 13:58:15;;;;;;;;;8.67;6.67;;;;;;;;5036381;28;45960;-85
2022/04/28 14:01:12;;;;;;;;;6.00;6.00;;;;;;;;5062084;28;47325;-87
2022/04/28 14:04:14;;;;;;;;;7.67;7.00;;;;;;;;5057592;28;45902;-83
2022/04/28 14:06:39;;;;;;;;;6.67;6.67;;;;;;;;5052238;28;45410;-79
2022/04/28 14:09:34;;;;;;;;;7.67;7.00;;;;;;;;5049578;28;45159;-84
2022/04/28 14:15:41;;;;;;;;;8.00;7.00;;;;;;;;4975676;28;45565;-80
2022/04/28 14:18:36;;;;;;;;;11.00;9.33;;;;;;;;5009769;28;45843;-84
2022/04/28 14:21:23;;;;;;;;;;;;;;;;;;;;;
2022/04/28 14:26:53;;;;;;;;;7.00;7.00;;;;;;;;4945674;28;46235;-82
2022/04/28 14:29:18;;;;;;;;;6.00;6.00;;;;;;;;5017162;28;45567;-82
2022/04/28 14:31:47;;;;;;;;;12.33;10.00;;;;;;;;4971050;28;45507;-83
2022/04/28 14:34:19;;;;;;;;;7.00;6.00;;;;;;;;4969495;28;45953;-82
2022/04/28 14:36:47;;;;;;;;;8.00;8.00;;;;;;;;4971985;28;45426;-81
2022/04/28 14:39:23;;;;;;;;;7.33;5.67;;;;;;;;4990363;27;45473;-85
2022/04/28 14:41:51;;;;;;;;;6.00;4.00;;;;;;;;5012003;27;46203;-81
2022/04/28 14:44:20;;;;;;;;;5.33;5.33;;;;;;;;4983513;28;48033;-81
2022/04/28 14:46:50;;;;;;;;;8.00;6.67;;;;;;;;4988852;27;45685;-80
2022/04/28 14:54:47;;;;;;;;;6.00;6.00;;;;;;;;4968089;28;46253;-83
2022/04/28 14:57:12;;;;;;;;;8.33;6.00;;;;;;;;4969064;28;45533;-78
2022/04/28 14:59:40;;;;;;;;;6.00;6.00;;;;;;;;4981621;27;45537;-79
2022/04/28 15:02:15;;;;;;;;;6.00;6.00;;;;;;;;4979002;28;45791;-83
2022/04/28 15:04:49;;;;;;;;;6.67;6.67;;;;;;;;4989933;27;45544;-84
2022/04/28 15:07:20;;;;;;;;;7.67;7.67;;;;;;;;4972656;27;45921;-83
2022/04/28 15:09:48;;;;;;;;;7.00;6.00;;;;;;;;4992487;28;45450;-79
2022/04/28 15:12:22;;;;;;;;;8.67;6.00;;;;;;;;4989849;27;45717;-79
2022/04/28 15:15:35;;;;;;;;;7.00;6.00;;;;;;;;4993236;28;45898;-81
2022/04/28 15:18:22;;;;;;;;;5.33;5.33;;;;;;;;4981985;27;45777;-80
2022/04/28 15:20:51;;;;;;;;;6.33;6.33;;;;;;;;4987120;28;45734;-82
2022/04/28 15:23:18;;;;;;;;;6.33;6.33;;;;;;;;4987121;27;45687;-81
2022/04/28 15:26:13;;;;;;;;;7.00;5.67;;;;;;;;5014998;28;46915;-79
2022/04/28 15:29:22;;;;;;;;;7.33;5.67;;;;;;;;4987514;27;45986;-84
2022/04/28 15:35:55;;;;;;;;;7.33;6.33;;;;;;;;4986164;28;45534;-79
2022/04/28 15:44:43;;;;;;;;;7.33;7.33;;;;;;;;5016797;28;45259;-83
2022/04/28 15:48:07;;;;;;;;;;;;;;;;;;;;;
2022/04/28 16:00:39;;;;;;;;;6.00;6.00;;;;;;;;4902546;28;45425;-84
2022/04/28 16:09:25;;;;;;;;;6.67;6.67;;;;;;;;4896073;29;45783;-81
2022/04/28 16:21:43;;;;;;;;;8.00;8.00;;;;;;;;4999783;28;45852;-83
2022/04/28 16:27:31;;;;;;;;;5.67;5.67;;;;;;;;4987602;28;45957;-81
2022/04/28 16:30:23;;;;;;;;;8.33;5.00;;;;;;;;4978488;28;45583;-81
2022/04/28 16:33:12;;;;;;;;;9.00;6.33;;;;;;;;5001836;28;45576;-81
2022/04/28 16:35:53;;;;;;;;;5.00;5.00;;;;;;;;5013589;28;45465;-80
2022/04/28 16:38:50;;;;;;;;;6.00;6.00;;;;;;;;4995419;28;47461;-83
2022/04/28 16:41:16;;;;;;;;;7.67;7.67;;;;;;;;5014370;28;45664;-81
2022/04/28 16:43:51;;;;;;;;;8.67;7.67;;;;;;;;4992827;28;45759;-80
2022/04/28 16:46:19;;;;;;;;;8.33;6.00;;;;;;;;4982947;27;45471;-81
2022/04/28 16:48:46;;;;;;;;;5.00;4.33;;;;;;;;4969996;27;46020;-81
2022/04/28 16:51:41;;;;;;;;;6.00;6.00;;;;;;;;4985202;27;45259;-82
2022/04/28 16:54:30;;;;;;;;;5.00;5.00;;;;;;;;4991761;28;45802;-83
2022/04/28 16:57:01;;;;;;;;;7.00;7.00;;;;;;;;4987260;27;45676;-79
2022/04/28 16:59:46;;;;;;;;;;;;;;;;;;;;;
2022/04/28 17:04:13;;;;;;;;;6.33;6.33;;;;;;;;4984158;27;73070;-80
2022/04/28 17:05:08;;;;;;;;;5.00;4.33;;;;;;;;4988321;27;46077;-80
2022/04/28 17:32:51;;;;;;;;;6.67;5.00;;;;;;;;4871495;28;45917;-82
2022/04/28 17:35:44;;;;;;;;;7.67;7.67;;;;;;;;4942298;28;46894;-83
2022/04/28 17:38:16;;;;;;;;;7.67;7.33;;;;;;;;4979514;28;45498;-80
2022/04/28 17:50:40;;;;;;;;;10.33;10.33;;;;;;;;4844917;28;45770;-80
2022/04/28 17:53:20;;;;;;;;;8.67;8.67;;;;;;;;4918994;28;46380;-82
2022/04/28 18:01:16;;;;;;;;;5.33;5.33;;;;;;;;5004026;28;45455;-82
2022/04/28 18:03:42;;;;;;;;;5.67;5.67;;;;;;;;4986784;28;45592;-83
2022/04/28 18:09:39;;;;;;;;;;;;;;;;;;;;;
2022/04/28 18:15:48;;;;;;;;;8.00;8.00;;;;;;;;4955373;28;44864;-87
2022/04/28 18:19:07;;;;;;;;;;;;;;;;;;;;;
2022/04/28 18:54:10;;;;;;;;;;;;;;;;;;;;;
2022/04/28 18:57:15;;;;;;;;;;;;;;;;;;;;;
2022/04/28 19:09:51;;;;;;;;;11.33;10.00;;;;;;;;4778447;29;45325;-80
2022/04/28 19:12:17;;;;;;;;;16.00;13.00;;;;;;;;4773290;29;46205;-80
2022/04/28 19:14:51;;;;;;;;;12.67;11.00;;;;;;;;4806909;29;45927;-81
2022/04/28 19:17:31;;;;;;;;;9.00;8.00;;;;;;;;4800450;29;46313;-82
2022/04/28 19:20:08;;;;;;;;;15.00;9.67;;;;;;;;4853032;28;46068;-82
2022/04/28 19:22:34;;;;;;;;;11.33;8.00;;;;;;;;4916400;28;45692;-81
2022/04/28 19:25:03;;;;;;;;;11.67;10.00;;;;;;;;4982214;28;45652;-83
2022/04/28 19:27:33;;;;;;;;;10.00;10.00;;;;;;;;4923895;28;45498;-82
2022/04/28 19:30:14;;;;;;;;;9.33;9.33;;;;;;;;4926657;28;45876;-81
2022/04/28 19:32:45;;;;;;;;;8.67;7.33;;;;;;;;4954759;28;45807;-83
2022/04/28 19:35:12;;;;;;;;;11.00;9.33;;;;;;;;4979017;28;46047;-82
2022/04/28 19:37:41;;;;;;;;;17.33;13.00;;;;;;;;4975548;28;45573;-82
2022/04/28 19:40:08;;;;;;;;;15.00;10.67;;;;;;;;4948855;28;45667;-82
2022/04/28 19:42:34;;;;;;;;;13.67;9.33;;;;;;;;4973328;28;46298;-82
2022/04/28 19:45:03;;;;;;;;;12.00;11.33;;;;;;;;4944752;28;45519;-82
2022/04/28 19:47:30;;;;;;;;;14.00;13.33;;;;;;;;4945217;28;45570;-82
2022/04/28 19:49:56;;;;;;;;;10.67;9.67;;;;;;;;5027217;28;45778;-82
2022/04/28 19:52:22;;;;;;;;;14.33;12.00;;;;;;;;4992745;28;45823;-83
2022/04/28 19:54:47;;;;;;;;;10.00;10.00;;;;;;;;5008481;28;45791;-83
2022/04/28 19:57:14;;;;;;;;;11.67;10.00;;;;;;;;5015599;28;45628;-81
2022/04/28 19:59:58;;;;;;;;;13.67;10.33;;;;;;;;4998522;28;45644;-83
2022/04/28 20:02:25;;;;;;;;;12.00;10.33;;;;;;;;5012721;28;46821;-82
2022/04/28 20:04:54;;;;;;;;;14.33;11.67;;;;;;;;4995645;27;45725;-82
2022/04/28 20:07:40;;;;;;;;;10.33;10.33;;;;;;;;4988725;28;45556;-83
2022/04/28 20:10:11;;;;;;;;;12.00;10.33;;;;;;;;5002053;27;46423;-84
2022/04/28 20:12:48;;;;;;;;;12.33;10.33;;;;;;;;5030400;28;46922;-84
2022/04/28 20:15:15;;;;;;;;;15.00;15.00;;;;;;;;5021129;27;45570;-84
2022/04/28 20:17:41;;;;;;;;;12.33;12.33;;;;;;;;4972918;28;46102;-82
2022/04/28 20:20:07;;;;;;;;;16.67;16.67;;;;;;;;4969898;28;46498;-81
2022/04/28 20:22:35;;;;;;;;;17.33;15.00;;;;;;;;4970645;28;45945;-83
2022/04/28 20:25:24;;;;;;;;;16.33;14.67;;;;;;;;5041262;28;45742;-82
2022/04/28 20:27:59;;;;;;;;;17.67;15.67;;;;;;;;4983931;28;45424;-85
2022/04/28 20:30:48;;;;;;;;;9.67;9.67;;;;;;;;4989644;28;45560;-82
2022/04/28 20:33:15;;;;;;;;;17.00;16.00;;;;;;;;4997213;27;46091;-80
2022/04/28 20:35:45;;;;;;;;;17.00;14.67;;;;;;;;5014106;28;45433;-81
2022/04/28 20:38:44;;;;;;;;;18.00;15.33;;;;;;;;4987455;27;45394;-81
2022/04/28 20:44:25;;;;;;;;;;;;;;;;;;;;;